Decoded Metar for KEZS ( in _UNIDENTIFIED) (IATA:N/A) | Meteo·Mobile Aviation Weather
aviador You're here:

KEZS Decoded Metar

in _UNIDENTIFIED
Report Time2019-06-20 06:55:00
UTC Time2019-06-20 07:05:22
Flight Rules vfr VFR
Wind040° at 07 kt
W.Decomp.*RWY 35: 4.3 kt HW 5.5 kt RCW
RWY 12: 1.5 kt HW 6.8 kt LCW
Visibility9999 m
Phenomena:N/A
Clouds:Scattered 047 Hf
Expected CloudBase > 1,600 ft AGL from Temp-Dew spread
CeilingNone
Temp15°C (ISA +2)
Dew Point11°C (77% RH)
AAT12.8°C
QNH1008 hPa
Density Alt1,355 ft
Elevation814 ft
Report Wrong Elevation
Raw Report
KEZS 200655Z AUTO 04007KT 10SM SCT047 15/11 A2976 RMK AO2
T01500106=

Extra information for KEZS:More info

Metar Taf Metar & Taf Last 4 Metars F.Rules Stats Wind Profile Meteogram Temp Stats Metar ALERT Operation Metar Decoded Social comments